Tümü
Ingalls Fld Airport (Hot Springs, VA) HSP Hava Durumu
|
Hot Springs, VA (KHSP)
Açık
Hafif rüzgârlı |
|
19 °C |
There is no TAF data available at HSP or any nearby airports.
Yakın zamandaki HSP METAR geçmişi
| Date | Time (EDT) | Flight Rules | Wind Dir. | Speed | Type | Height AGL (ft) | Visibility | Temp (°C) | Temp (°F) | Dew Point (°C) | Dew Point (°F) | Rel. Humid. | Pressure | Density Altitude | Remarks |
|---|---|---|---|---|---|---|---|---|---|---|---|---|---|---|---|
| 04-Eyl | 18:35 | VFR | 280° | 7 kt | 10 miles | 19° | 66° | 17° | 62° | 88% | 30.14 in Hg | 4.765 ft | |||
| 04-Eyl | 18:15 | VFR | 280° | 8 kt | 10 miles | 19° | 66° | 17° | 62° | 85% | 30.16 in Hg | 4.745 ft | |||
| 04-Eyl | 17:55 | VFR | 290° | 11 kt | 10 miles |
20° | 68° | 16° | 60° | 82% | 30.16 in Hg | 4.865 ft | Wind gusting to 20 KT | ||
| 04-Eyl | 17:35 | IFR | 350° | 10 kt | 1.75 miles |
19° | 66° | 18° | 64° | 90% | 30.16 in Hg | 4.745 ft | |||
| 04-Eyl | 17:15 | VFR | 290° | 7 kt | 10 miles | 26° | 78° | 19° | 66° | 63% | 30.15 in Hg | 5.595 ft | |||
| 04-Eyl | 16:55 | VFR | 290° | 6 kt | 10 miles | 27° | 80° | 19° | 66° | 63% | 30.16 in Hg | 5.705 ft | |||
| 04-Eyl | 16:35 | VFR | 280° | 6 kt | 10 miles | 27° | 80° | 19° | 66° | 62% | 30.15 in Hg | 5.715 ft | |||
| 04-Eyl | 16:15 | VFR | 270° | 10 kt | 10 miles | 28° | 82° | 19° | 66° | 59% | 30.14 in Hg | 5.845 ft | |||
| 04-Eyl | 15:55 | VFR | 260° | 9 kt | 10 miles | 28° | 82° | 19° | 66° | 57% | 30.15 in Hg | 5.835 ft | |||
| 04-Eyl | 15:35 | VFR | 250° | 9 kt | 10 miles | 28° | 82° | 19° | 66° | 57% | 30.16 in Hg | 5.825 ft | |||
| 04-Eyl | 15:15 | VFR | 240° | 10 kt | 10 miles | 28° | 82° | 19° | 66° | 59% | 30.16 in Hg | 5.825 ft | Wind gusting to 14 KT | ||
| 04-Eyl | 14:55 | VFR | 270° | 8 kt | 10 miles | 28° | 82° | 19° | 66° | 59% | 30.16 in Hg | 5.825 ft | |||
| 04-Eyl | 14:35 | VFR | 280° | 7 kt | 10 miles | 27° | 80° | 20° | 68° | 63% | 30.17 in Hg | 5.695 ft | |||
| 04-Eyl | 14:15 | VFR | 300° | 5 kt | 10 miles | 25° | 77° | 19° | 66° | 70% | 30.18 in Hg | 5.445 ft | |||
| 04-Eyl | 13:55 | VFR | 320° | 5 kt | 10 miles | 26° | 78° | 20° | 68° | 67% | 30.19 in Hg | 5.555 ft | |||
| 04-Eyl | 13:35 | VFR | 310° | 5 kt | 10 miles | 27° | 80° | 20° | 68° | 66% | 30.20 in Hg | 5.665 ft | |||
| 04-Eyl | 13:15 | VFR | 320° | 5 kt | 10 miles | 27° | 80° | 21° | 69° | 66% | 30.20 in Hg | 5.665 ft | |||
| 04-Eyl | 12:55 | VFR | 280° | 7 kt | 10 miles | 27° | 80° | 21° | 69° | 70% | 30.20 in Hg | 5.665 ft | |||
| 04-Eyl | 12:35 | VFR | 270° | 7 kt | 10 miles | 27° | 80° | 21° | 69° | 70% | 30.21 in Hg | 5.655 ft | |||
| 04-Eyl | 12:15 | VFR | 290° | 7 kt | 10 miles | 27° | 80° | 21° | 69° | 71% | 30.21 in Hg | 5.655 ft | |||
| 04-Eyl | 11:35 | VFR | 270° | 7 kt | 10 miles | 26° | 78° | 21° | 69° | 76% | 30.21 in Hg | 5.535 ft | |||
| 04-Eyl | 11:15 | VFR | 270° | 7 kt | 10 miles | 25° | 77° | 21° | 69° | 77% | 30.21 in Hg | 5.415 ft | |||
| 04-Eyl | 10:55 | VFR | 270° | 7 kt | 10 miles |
25° | 77° | 21° | 69° | 78% | 30.20 in Hg | 5.425 ft | |||
| 04-Eyl | 10:35 | VFR | 280° | 9 kt | 7 miles | 25° | 77° | 20° | 68° | 78% | 30.20 in Hg | 5.425 ft |
Giriş
| Tarayıcınız desteklenmiyor. tarayıcınızı yükseltin |
